Terminal Aerodrome Forecast
Issued by NWS Sioux Falls, SD

Home | Current Version | Previous Version | Graphics & Text | Print | Product List | Glossary Off
Versions: 1 2 3 4 5 6 7 8 9 10 11 12 13 14 15 16 17

000
FTUS43 KFSD 190522
TAFHON
TAF
KHON 190522Z 1906/2006 16007KT 5SM BR SCT006 BKN015
      TEMPO 1911/1915 2SM BR BKN006
     FM191800 16008KT P6SM BKN015=

USA.gov is the U.S. government's official web portal to all federal, state and local government web resources and services.